Flight Track Log - Related Links

Times and Time Zones

All times are in EDT time to prevent confusion due to time zone crossing. See the N98WP flight status page for this flight to view local times or setup timezone preferences in your user account.

Time Position Orientation Groundspeed Altitude Reporting Facility
EDT Latitude Longitude Course Direction KTS MPH feet Rate Location/Type
Wed 05:31:56 PM 30.5794 -98.2200 57° Northeast 152 175 7,500  Level Houston Center
Wed 05:32:58 PM 30.6083 -98.1794 50° Northeast 164 189 9,300 1,839 Climbing Houston Center
Wed 05:34:00 PM 30.6411 -98.1281 53° Northeast 173 199 11,300 1,887 Climbing Houston Center
Wed 05:35:02 PM 30.6689 -98.0833 54° Northeast 168 193 13,200 1,742 Climbing Houston Center
Wed 05:36:00 PM 30.9155 -97.7487 53° Northeast  Level Estimated
Wed 05:36:04 PM 30.6978 -98.0381 53° Northeast 177 204 14,900  Level Houston Center
Wed 05:37:06 PM 30.7339 -97.9844 52° Northeast 215 247 15,700 1,258 Climbing Houston Center
Wed 05:38:08 PM 30.7669 -97.9328 53° Northeast 190 219 17,500 1,597 Climbing Houston Center
Wed 05:39:10 PM 30.7986 -97.8842 53° Northeast 185 213 19,000 1,452 Climbing Houston Center
Wed 05:40:12 PM 30.8289 -97.8339 55° Northeast 182 209 20,500 1,355 Climbing Houston Center
Wed 05:41:14 PM 30.8586 -97.7869 54° Northeast 184 212 21,800 1,366 Climbing Houston Center
Wed 05:42:15 PM 30.8958 -97.7322 52° Northeast 180 207 23,300 1,220 Climbing Houston Center
Wed 05:43:17 PM 30.9267 -97.6856 52° Northeast 182 209 24,300 677 Climbing Houston Center
Wed 05:44:19 PM 30.9611 -97.6311 54° Northeast 217 250 24,700 339 Climbing Houston Center
Wed 05:45:21 PM 30.9997 -97.5697 54° Northeast 239 275 25,000 145 Climbing Houston Center
Wed 05:46:23 PM 31.0422 -97.5036 53° Northeast 257 296 25,000  Level Houston Center
Wed 05:47:25 PM 31.0881 -97.4322 53° Northeast 262 302 25,000  Level Houston Center
Wed 05:48:27 PM 31.1308 -97.3653 53° Northeast 259 298 25,000  Level Houston Center
Wed 05:49:29 PM 31.1744 -97.2975 53° Northeast 255 293 25,000  Level Houston Center
Wed 05:50:31 PM 31.2175 -97.2303 53° Northeast 254 292 25,000  Level Houston Center
Wed 05:51:32 PM 31.2603 -97.1647 53° Northeast 250 288 25,000 -146 Level Houston Center
Wed 05:52:34 PM 31.3036 -97.0981 53° Northeast 260 299 24,700 -484 Descending Houston Center
Wed 05:53:36 PM 31.3486 -97.0258 54° Northeast 272 313 24,000 -435 Descending Houston Center
Wed 05:54:38 PM 31.3997 -96.9447 54° Northeast 260 299 23,800 -435 Descending Houston Center
Wed 05:55:40 PM 31.4439 -96.8739 54° Northeast 270 311 23,100 -629 Descending Houston Center
Wed 05:56:42 PM 31.4892 -96.8014 54° Northeast 273 314 22,500 -726 Descending Houston Center
Wed 05:57:44 PM 31.5361 -96.7275 53° Northeast 281 323 21,600 -823 Descending Houston Center
Wed 05:58:46 PM 31.5844 -96.6539 52° Northeast 280 322 20,800 -919 Descending Houston Center
Wed 05:59:48 PM 31.6325 -96.5764 54° Northeast 285 328 19,700 -902 Descending Houston Center
Wed 06:01:39 PM 31.7189 -96.4414 53° Northeast 269 310 18,200 -982 Descending Fort Worth Center
Wed 06:02:39 PM 31.7664 -96.3650 54° Northeast 269 310 16,900 -1,650 Descending Fort Worth Center
Wed 06:03:39 PM 31.8139 -96.2889 54° Northeast 274 315 14,900 -1,950 Descending Fort Worth Center
Wed 06:04:39 PM 31.8611 -96.2122 54° Northeast 279 321 13,000 -1,550 Descending Fort Worth Center
Wed 06:05:39 PM 31.9000 -96.1433 56° Northeast 267 307 11,800 -1,350 Descending Fort Worth Center
Wed 06:06:39 PM 31.9453 -96.0767 51° Northeast 261 300 10,300 -1,200 Descending Fort Worth Center
Wed 06:07:39 PM 31.9842 -96.0100 55° Northeast 256 295 9,400 -950 Descending Fort Worth Center
Wed 06:08:39 PM 32.0253 -95.9431 54° Northeast 246 283 8,400 -1,100 Descending Fort Worth Center
Wed 06:09:39 PM 32.0642 -95.8789 54° Northeast 241 277 7,200 -1,100 Descending Fort Worth Center
Wed 06:10:39 PM 32.1156 -95.8264 41° Northeast 241 277 6,200 -650 Descending Fort Worth Center
Wed 06:11:39 PM 32.1694 -95.7814 35° Northeast 236 272 5,900 -100 Descending Fort Worth Center
Wed 06:12:39 PM 32.1997 -95.7169 61° Northeast 222 255 6,000 -100 Climbing Fort Worth Center
Wed 06:13:39 PM 32.2322 -95.6475 61° Northeast 222 255 5,700 -700 Descending Fort Worth Center
Wed 06:14:39 PM 32.2628 -95.5831 61° Northeast 227 261 4,600 -950 Descending Fort Worth Center
Wed 06:15:39 PM 32.2953 -95.5186 59° Northeast 227 261 3,800 4,200 Descending Fort Worth Center
Wed 06:16:39 PM 32.3256 -95.4564 60° Northeast 227 261 13,000 4,600 Climbing Fort Worth Center
Wed 06:17:39 PM 32.3558 -95.3942 60° Northeast 227 261 13,000  Level Fort Worth Center
Wed 06:18:39 PM 32.3861 -95.3322 60° Northeast 227 261 13,000  Level Fort Worth Center
Wed 06:19:39 PM 32.4044 -95.2947 60° Northeast 227 261 13,000  Level Fort Worth Center
Wed 06:21:39 PM 32.4044 -95.2947 337° Northwest 227 261 13,000  Level Fort Worth Center

Login

Don't have an account? Register now (free) for customized features, flight alerts, and more!